createdAt,value
2019-03-30T00:00:34.853Z,14.93
2019-03-30T00:03:02.200Z,13.88
2019-03-30T00:05:29.469Z,14.87
2019-03-30T00:07:56.786Z,14.63
2019-03-30T00:10:24.085Z,16.73
2019-03-30T00:12:51.375Z,15.50
2019-03-30T00:15:18.783Z,14.70
2019-03-30T00:17:46.069Z,14.43
2019-03-30T00:20:13.363Z,15.88
2019-03-30T00:22:40.701Z,16.00
2019-03-30T00:25:08.054Z,15.83
2019-03-30T00:27:35.298Z,16.90
2019-03-30T00:30:03.149Z,15.45
2019-03-30T00:32:30.490Z,16.90
2019-03-30T00:34:57.781Z,16.42
2019-03-30T00:37:25.121Z,16.15
2019-03-30T00:39:52.443Z,17.62
2019-03-30T00:42:19.738Z,17.65
2019-03-30T00:44:47.152Z,17.70
2019-03-30T00:47:14.450Z,17.12
2019-03-30T00:49:48.937Z,16.77
2019-03-30T00:52:10.706Z,16.07
2019-03-30T00:54:38.011Z,17.00
2019-03-30T00:57:05.331Z,17.12
2019-03-30T00:59:32.653Z,16.35
2019-03-30T01:01:59.974Z,17.70
2019-03-30T01:04:27.279Z,17.35
2019-03-30T01:06:54.598Z,16.90
2019-03-30T01:09:21.897Z,15.60
2019-03-30T01:11:49.206Z,15.70
2019-03-30T01:14:16.529Z,15.95
2019-03-30T01:16:43.828Z,15.93
2019-03-30T01:19:11.132Z,15.72
2019-03-30T01:21:38.457Z,17.17
2019-03-30T01:24:05.750Z,15.83
2019-03-30T01:26:33.077Z,16.85
2019-03-30T01:29:00.374Z,17.42
2019-03-30T01:31:27.679Z,17.95
2019-03-30T01:33:55.003Z,16.73
2019-03-30T01:36:22.290Z,16.60
2019-03-30T01:38:49.582Z,17.82
2019-03-30T01:41:16.899Z,18.35
2019-03-30T01:43:44.195Z,18.07
2019-03-30T01:46:11.509Z,18.77
2019-03-30T01:48:38.841Z,17.70
2019-03-30T01:51:06.144Z,17.92
2019-03-30T01:53:33.430Z,18.27
2019-03-30T01:56:00.746Z,17.70
2019-03-30T01:58:28.058Z,18.05
2019-03-30T02:00:55.392Z,17.92
2019-03-30T02:03:22.706Z,18.70
2019-03-30T02:05:50.004Z,19.45
2019-03-30T02:08:17.292Z,18.05
2019-03-30T02:10:45.095Z,18.27
2019-03-30T02:13:12.376Z,18.92
2019-03-30T02:15:39.703Z,19.80
2019-03-30T02:18:07.163Z,18.37
2019-03-30T02:20:38.776Z,20.00
2019-03-30T02:23:06.137Z,19.90
2019-03-30T02:25:33.445Z,19.25
2019-03-30T02:28:00.758Z,18.90
2019-03-30T02:30:28.072Z,19.92
2019-03-30T02:32:55.394Z,19.82
2019-03-30T02:35:26.305Z,19.95
2019-03-30T02:37:51.634Z,20.15
2019-03-30T02:40:18.971Z,20.15
2019-03-30T02:42:46.276Z,18.98
2019-03-30T02:45:13.597Z,18.60
2019-03-30T02:47:40.923Z,18.85
2019-03-30T02:50:08.194Z,20.23
2019-03-30T02:52:35.540Z,20.20
2019-03-30T02:55:02.905Z,21.85
2019-03-30T02:57:30.190Z,21.77
2019-03-30T02:59:57.510Z,20.65
2019-03-30T03:02:24.802Z,21.80
2019-03-30T03:04:52.099Z,20.48
2019-03-30T03:07:19.428Z,21.02
2019-03-30T03:09:46.726Z,20.85
2019-03-30T03:12:14.037Z,21.80
2019-03-30T03:14:41.327Z,20.17
2019-03-30T03:17:08.641Z,19.90
2019-03-30T03:19:35.994Z,18.60
2019-03-30T03:22:03.280Z,17.90
2019-03-30T03:24:30.612Z,19.40
2019-03-30T03:26:57.897Z,19.57
2019-03-30T03:29:25.194Z,19.07
2019-03-30T03:31:52.532Z,19.07
2019-03-30T03:34:19.819Z,18.50
2019-03-30T03:36:47.118Z,19.10
2019-03-30T03:39:14.455Z,19.95
2019-03-30T03:41:41.760Z,20.52
2019-03-30T03:44:09.045Z,19.90
2019-03-30T03:46:36.371Z,18.70
2019-03-30T03:49:03.666Z,19.50
2019-03-30T03:51:30.978Z,20.70
2019-03-30T03:53:58.283Z,19.77
2019-03-30T03:56:25.586Z,19.55
2019-03-30T03:58:52.979Z,20.75
2019-03-30T04:01:20.314Z,18.80
2019-03-30T04:03:47.611Z,18.98
2019-03-30T04:06:14.902Z,19.73
2019-03-30T04:08:42.590Z,18.60
2019-03-30T04:11:10.012Z,19.07
2019-03-30T04:13:37.276Z,19.85
2019-03-30T04:16:04.580Z,19.15
2019-03-30T04:18:31.874Z,20.20
2019-03-30T04:20:59.194Z,19.62
2019-03-30T04:23:26.494Z,18.92
2019-03-30T04:25:53.851Z,20.23
2019-03-30T04:28:21.376Z,20.23
2019-03-30T04:30:48.670Z,18.20
2019-03-30T04:33:16.002Z,20.05
2019-03-30T04:35:43.294Z,19.45
2019-03-30T04:38:14.100Z,19.32
2019-03-30T04:40:39.601Z,20.70
2019-03-30T04:43:06.928Z,18.80
2019-03-30T04:45:34.233Z,19.62
2019-03-30T04:48:01.759Z,20.95
2019-03-30T04:50:29.066Z,18.75
2019-03-30T04:52:56.378Z,19.90
2019-03-30T04:55:23.670Z,20.12
2019-03-30T04:57:50.962Z,18.98
2019-03-30T05:00:18.283Z,19.82
2019-03-30T05:02:45.576Z,19.98
2019-03-30T05:05:12.899Z,18.27
2019-03-30T05:07:40.176Z,19.82
2019-03-30T05:10:07.497Z,19.57
2019-03-30T05:12:34.781Z,20.50
2019-03-30T05:15:02.074Z,20.43
2019-03-30T05:17:45.915Z,18.87
2019-03-30T05:19:58.334Z,18.75
2019-03-30T05:22:25.622Z,19.90
2019-03-30T05:24:52.934Z,19.55
2019-03-30T05:27:20.293Z,19.27
2019-03-30T05:29:47.647Z,18.45
2019-03-30T05:32:14.926Z,18.42
2019-03-30T05:34:42.235Z,19.10
2019-03-30T05:37:09.552Z,19.82
2019-03-30T05:39:36.836Z,18.95
2019-03-30T05:42:04.134Z,19.37
2019-03-30T05:44:31.467Z,18.92
2019-03-30T05:46:58.834Z,19.27
2019-03-30T05:49:26.168Z,18.82
2019-03-30T05:51:53.453Z,18.62
2019-03-30T05:54:20.749Z,19.73
2019-03-30T05:56:48.173Z,22.58
2019-03-30T05:59:15.443Z,22.05
2019-03-30T06:01:42.769Z,20.82
2019-03-30T06:04:10.070Z,19.67
2019-03-30T06:06:37.471Z,17.52
2019-03-30T06:09:05.673Z,18.80
2019-03-30T06:11:32.996Z,19.32
2019-03-30T06:14:00.279Z,20.23
2019-03-30T06:16:27.606Z,20.02
2019-03-30T06:18:54.947Z,20.77
2019-03-30T06:21:22.245Z,20.30
2019-03-30T06:23:49.540Z,19.70
2019-03-30T06:26:16.853Z,20.77
2019-03-30T06:28:44.182Z,18.92
2019-03-30T06:31:11.497Z,19.25
2019-03-30T06:33:38.892Z,20.15
2019-03-30T06:36:06.191Z,19.65
2019-03-30T06:38:33.477Z,20.65
2019-03-30T06:41:00.882Z,19.27
2019-03-30T06:43:28.173Z,18.37
2019-03-30T06:45:55.691Z,19.20
2019-03-30T06:48:23.425Z,18.35
2019-03-30T06:50:51.250Z,16.37
2019-03-30T06:53:20.635Z,15.58
2019-03-30T06:55:52.178Z,13.68
2019-03-30T06:58:19.429Z,16.57
2019-03-30T07:00:47.084Z,15.80
2019-03-30T07:03:14.410Z,13.28
2019-03-30T07:05:41.807Z,14.90
2019-03-30T07:08:11.594Z,14.47
2019-03-30T07:10:39.545Z,13.10
2019-03-30T07:13:07.355Z,14.40
2019-03-30T07:15:36.072Z,14.00
2019-03-30T07:18:03.439Z,12.90
2019-03-30T07:20:31.373Z,15.75
2019-03-30T07:23:11.076Z,15.23
2019-03-30T07:25:31.826Z,12.68
2019-03-30T07:27:59.939Z,16.42
2019-03-30T07:30:35.494Z,16.77
2019-03-30T07:33:02.813Z,13.90
2019-03-30T07:35:30.108Z,13.78
2019-03-30T07:37:57.490Z,15.45
2019-03-30T07:40:24.792Z,15.58
2019-03-30T07:42:52.084Z,14.75
2019-03-30T07:45:19.426Z,15.43
2019-03-30T07:47:46.728Z,14.30
2019-03-30T07:50:14.021Z,14.35
2019-03-30T07:52:41.339Z,16.23
2019-03-30T07:55:08.630Z,16.30
2019-03-30T07:57:35.953Z,13.95
2019-03-30T08:00:04.626Z,15.10
2019-03-30T08:02:31.931Z,16.17
2019-03-30T08:04:59.254Z,16.60
2019-03-30T08:07:26.546Z,16.55
2019-03-30T08:09:53.862Z,15.43
2019-03-30T08:12:21.163Z,15.35
2019-03-30T08:14:48.449Z,13.53
2019-03-30T08:17:15.761Z,13.65
2019-03-30T08:19:43.071Z,13.70
2019-03-30T08:22:10.376Z,13.18
2019-03-30T08:24:37.666Z,13.88
2019-03-30T08:27:04.980Z,13.03
2019-03-30T08:29:32.279Z,15.23
2019-03-30T08:31:59.564Z,56.30
2019-03-30T08:34:26.888Z,14.60
2019-03-30T08:36:54.173Z,13.48
2019-03-30T08:39:21.504Z,15.43
2019-03-30T08:41:48.805Z,13.70
2019-03-30T08:44:16.130Z,14.70
2019-03-30T08:46:43.424Z,14.47
2019-03-30T08:49:10.727Z,16.12
2019-03-30T08:51:38.056Z,14.47
2019-03-30T08:54:05.366Z,14.47
2019-03-30T08:56:32.665Z,14.87
2019-03-30T08:58:59.992Z,15.72
2019-03-30T09:01:27.296Z,16.42
2019-03-30T09:03:54.584Z,15.58
2019-03-30T09:06:21.912Z,16.87
2019-03-30T09:08:49.211Z,16.10
2019-03-30T09:11:16.501Z,15.32
2019-03-30T09:13:43.822Z,15.43
2019-03-30T09:16:11.114Z,15.25
2019-03-30T09:18:38.441Z,15.15
2019-03-30T09:21:05.735Z,16.17
2019-03-30T09:23:33.034Z,14.93
2019-03-30T09:26:00.367Z,16.45
2019-03-30T09:28:27.666Z,14.70
2019-03-30T09:30:54.951Z,17.50
2019-03-30T09:33:22.270Z,15.93
2019-03-30T09:35:49.578Z,14.58
2019-03-30T09:38:16.896Z,19.65
2019-03-30T09:40:44.188Z,16.48
2019-03-30T09:43:11.497Z,16.20
2019-03-30T09:45:38.788Z,16.73
2019-03-30T09:48:06.105Z,15.90
2019-03-30T09:50:33.397Z,15.68
2019-03-30T09:53:00.790Z,17.77
2019-03-30T09:55:28.078Z,16.70
2019-03-30T09:57:55.398Z,17.07
2019-03-30T10:00:22.690Z,18.10
2019-03-30T10:02:49.993Z,18.00
2019-03-30T10:05:17.306Z,17.77
2019-03-30T10:07:44.605Z,17.17
2019-03-30T10:10:11.935Z,17.48
2019-03-30T10:12:39.226Z,18.40
2019-03-30T10:15:06.521Z,17.30
2019-03-30T10:17:33.850Z,17.00
2019-03-30T10:20:04.623Z,17.25
2019-03-30T10:22:30.109Z,18.48
2019-03-30T10:24:58.534Z,20.02
2019-03-30T10:27:25.919Z,17.10
2019-03-30T10:29:53.230Z,18.20
2019-03-30T10:32:20.567Z,16.67
2019-03-30T10:34:47.859Z,17.15
2019-03-30T10:37:15.150Z,17.70
2019-03-30T10:39:42.473Z,18.92
2019-03-30T10:42:09.773Z,26.77
2019-03-30T10:44:37.099Z,18.07
2019-03-30T10:47:04.463Z,16.73
2019-03-30T10:49:31.759Z,17.37
2019-03-30T10:51:59.586Z,21.17
2019-03-30T10:54:26.865Z,16.55
2019-03-30T10:56:54.183Z,19.27
2019-03-30T10:59:21.479Z,16.15
2019-03-30T11:01:48.954Z,17.27
2019-03-30T11:04:16.263Z,16.48
2019-03-30T11:06:43.549Z,16.35
2019-03-30T11:09:12.790Z,25.23
2019-03-30T11:11:40.245Z,16.35
2019-03-30T11:14:07.530Z,17.12
2019-03-30T11:16:34.870Z,18.07
2019-03-30T11:19:02.161Z,19.23
2019-03-30T11:21:29.448Z,18.35
2019-03-30T11:23:56.778Z,18.17
2019-03-30T11:26:24.059Z,19.17
2019-03-30T11:28:51.376Z,17.07
2019-03-30T11:31:20.266Z,17.67
2019-03-30T11:33:47.557Z,16.93
2019-03-30T11:36:18.365Z,16.17
2019-03-30T11:38:43.828Z,16.32
2019-03-30T11:41:11.141Z,15.78
2019-03-30T11:43:38.433Z,16.50
2019-03-30T11:46:05.728Z,19.20
2019-03-30T11:48:33.032Z,16.37
2019-03-30T11:51:00.338Z,17.00
2019-03-30T11:53:27.644Z,17.07
2019-03-30T11:55:54.946Z,14.68
2019-03-30T11:58:22.265Z,15.30
2019-03-30T12:00:49.576Z,15.25
2019-03-30T12:03:16.865Z,16.27
2019-03-30T12:05:44.185Z,17.80
2019-03-30T12:08:11.493Z,13.48
2019-03-30T12:10:38.790Z,30.55
2019-03-30T12:13:06.112Z,13.05
2019-03-30T12:15:33.744Z,14.03
2019-03-30T12:18:01.139Z,24.18
2019-03-30T12:20:28.723Z,12.95
2019-03-30T12:22:56.080Z,12.10
2019-03-30T12:25:34.792Z,12.47
2019-03-30T12:27:52.514Z,14.03
2019-03-30T12:30:19.943Z,12.67
2019-03-30T12:32:47.273Z,15.43
2019-03-30T12:35:14.556Z,15.53
2019-03-30T12:37:41.878Z,13.13
2019-03-30T12:40:09.186Z,11.80
2019-03-30T12:42:36.555Z,12.90
2019-03-30T12:45:04.984Z,13.03
2019-03-30T12:47:32.298Z,13.63
2019-03-30T12:49:59.677Z,13.93
2019-03-30T12:52:31.987Z,11.53
2019-03-30T12:55:03.794Z,11.20
2019-03-30T12:57:36.112Z,12.80
2019-03-30T13:00:08.684Z,11.97
2019-03-30T13:02:40.231Z,12.87
2019-03-30T13:05:11.673Z,11.93
2019-03-30T13:07:43.523Z,19.57
2019-03-30T13:10:13.853Z,14.40
2019-03-30T13:12:45.664Z,11.77
2019-03-30T13:15:16.821Z,10.33
2019-03-30T13:17:47.725Z,8.57
2019-03-30T13:20:23.892Z,9.83
2019-03-30T13:22:55.298Z,9.40
2019-03-30T13:25:26.334Z,10.67
2019-03-30T13:27:54.379Z,10.37
2019-03-30T13:30:21.813Z,9.43
2019-03-30T13:32:49.153Z,9.77
2019-03-30T13:35:16.631Z,10.20
2019-03-30T13:37:43.951Z,9.87
2019-03-30T13:40:11.356Z,11.67
2019-03-30T13:42:38.819Z,11.60
2019-03-30T13:45:06.310Z,10.00
2019-03-30T13:47:33.716Z,11.23
2019-03-30T13:50:01.314Z,12.07
2019-03-30T13:52:28.698Z,14.13
2019-03-30T13:54:56.021Z,11.17
2019-03-30T13:57:23.353Z,11.00
2019-03-30T13:59:50.789Z,12.87
2019-03-30T14:02:18.177Z,12.43
2019-03-30T14:04:45.499Z,12.10
2019-03-30T14:07:12.962Z,12.80
2019-03-30T14:09:40.298Z,11.60
2019-03-30T14:12:07.728Z,11.77
2019-03-30T14:14:35.032Z,10.83
2019-03-30T14:17:02.343Z,14.50
2019-03-30T14:19:29.635Z,12.80
2019-03-30T14:21:56.954Z,16.27
2019-03-30T14:24:24.271Z,10.60
2019-03-30T14:26:51.567Z,11.50
2019-03-30T14:29:18.885Z,12.60
2019-03-30T14:31:46.195Z,14.37
2019-03-30T14:34:13.518Z,13.53
2019-03-30T14:36:40.819Z,12.23
2019-03-30T14:39:08.114Z,12.93
2019-03-30T14:41:35.608Z,11.57
2019-03-30T14:44:02.898Z,13.33
2019-03-30T14:46:30.251Z,11.47
2019-03-30T14:48:57.550Z,13.97
2019-03-30T14:51:24.838Z,11.63
2019-03-30T14:53:52.163Z,14.07
2019-03-30T14:56:19.451Z,12.17
2019-03-30T14:58:46.779Z,11.30
2019-03-30T15:01:14.071Z,10.40
2019-03-30T15:03:41.385Z,11.90
2019-03-30T15:06:08.678Z,11.70
2019-03-30T15:08:35.999Z,11.90
2019-03-30T15:11:03.293Z,12.63
2019-03-30T15:13:30.602Z,10.80
2019-03-30T15:15:57.922Z,11.10
2019-03-30T15:18:25.212Z,10.00
2019-03-30T15:20:52.502Z,10.80
2019-03-30T15:23:19.812Z,12.23
2019-03-30T15:25:47.105Z,10.77
2019-03-30T15:28:14.425Z,11.80
2019-03-30T15:30:41.721Z,10.67
2019-03-30T15:33:09.013Z,10.53
2019-03-30T15:35:36.344Z,14.63
2019-03-30T15:38:03.655Z,12.23
2019-03-30T15:40:31.078Z,10.43
2019-03-30T15:42:58.366Z,10.50
2019-03-30T15:45:25.678Z,11.30
2019-03-30T15:47:52.999Z,11.47
2019-03-30T15:50:20.289Z,10.33
2019-03-30T15:52:47.614Z,11.53
2019-03-30T15:55:14.952Z,10.43
2019-03-30T15:57:42.252Z,9.80
2019-03-30T16:00:10.211Z,10.60
2019-03-30T16:02:37.523Z,9.67
2019-03-30T16:05:05.272Z,9.73
2019-03-30T16:07:32.612Z,12.03
2019-03-30T16:09:59.911Z,11.40
2019-03-30T16:12:27.230Z,11.20
2019-03-30T16:14:54.540Z,11.60
2019-03-30T16:17:21.853Z,10.17
2019-03-30T16:19:49.145Z,10.63
2019-03-30T16:22:16.438Z,11.83
2019-03-30T16:24:43.758Z,11.00
2019-03-30T16:27:11.073Z,12.93
2019-03-30T16:29:38.397Z,11.70
2019-03-30T16:32:05.701Z,10.80
2019-03-30T16:34:33.000Z,12.00
2019-03-30T16:37:00.311Z,10.80
2019-03-30T16:39:27.605Z,11.13
2019-03-30T16:41:54.934Z,12.53
2019-03-30T16:44:22.226Z,16.93
2019-03-30T16:46:49.527Z,17.00
2019-03-30T16:49:16.840Z,11.23
2019-03-30T16:51:44.131Z,13.10
2019-03-30T16:54:11.452Z,11.70
2019-03-30T16:56:38.745Z,11.17
2019-03-30T16:59:06.042Z,14.17
2019-03-30T17:01:33.370Z,13.23
2019-03-30T17:04:00.674Z,10.75
2019-03-30T17:06:28.015Z,10.53
2019-03-30T17:08:55.324Z,10.25
2019-03-30T17:11:22.615Z,11.90
2019-03-30T17:13:49.937Z,10.25
2019-03-30T17:16:17.236Z,11.05
2019-03-30T17:18:44.530Z,11.68
2019-03-30T17:21:11.849Z,11.20
2019-03-30T17:23:39.135Z,12.05
2019-03-30T17:26:06.442Z,13.75
2019-03-30T17:28:33.766Z,15.85
2019-03-30T17:31:01.082Z,15.15
2019-03-30T17:33:28.390Z,12.90
2019-03-30T17:35:55.702Z,12.78
2019-03-30T17:38:22.994Z,11.18
2019-03-30T17:40:50.298Z,11.20
2019-03-30T17:43:17.618Z,11.78
2019-03-30T17:45:44.977Z,11.48
2019-03-30T17:48:12.289Z,11.40
2019-03-30T17:50:39.595Z,12.43
2019-03-30T17:53:06.909Z,14.10
2019-03-30T17:55:34.435Z,13.68
2019-03-30T17:58:12.930Z,16.35
2019-03-30T18:00:30.746Z,12.37
2019-03-30T18:02:58.046Z,9.48
2019-03-30T18:05:25.372Z,7.83
2019-03-30T18:07:52.654Z,6.78
2019-03-30T18:10:19.937Z,7.45
2019-03-30T18:12:47.254Z,9.00
2019-03-30T18:15:14.541Z,8.65
2019-03-30T18:17:41.822Z,8.45
2019-03-30T18:20:09.148Z,8.15
2019-03-30T18:22:36.456Z,8.43
2019-03-30T18:25:04.706Z,7.08
2019-03-30T18:27:32.947Z,7.15
2019-03-30T18:30:00.449Z,7.95
2019-03-30T18:32:27.753Z,9.40
2019-03-30T18:34:55.214Z,8.98
2019-03-30T18:37:22.505Z,11.25
2019-03-30T18:39:49.833Z,11.43
2019-03-30T18:42:17.147Z,12.95
2019-03-30T18:44:44.451Z,11.93
2019-03-30T18:47:11.774Z,11.48
2019-03-30T18:49:42.375Z,10.82
2019-03-30T18:52:08.006Z,9.30
2019-03-30T18:54:35.326Z,10.00
2019-03-30T18:57:02.630Z,9.68
2019-03-30T18:59:29.918Z,11.28
2019-03-30T19:01:57.234Z,9.70
2019-03-30T19:04:24.520Z,9.55
2019-03-30T19:06:51.802Z,10.32
2019-03-30T19:09:19.121Z,23.32
2019-03-30T19:11:46.452Z,30.48
2019-03-30T19:14:13.742Z,22.70
2019-03-30T19:16:41.053Z,16.00
2019-03-30T19:19:08.369Z,16.80
2019-03-30T19:21:35.665Z,14.15
2019-03-30T19:24:02.979Z,10.70
2019-03-30T19:26:30.266Z,11.63
2019-03-30T19:28:57.587Z,10.53
2019-03-30T19:31:24.885Z,10.58
2019-03-30T19:33:52.198Z,10.53
2019-03-30T19:36:19.511Z,11.60
2019-03-30T19:38:46.807Z,12.28
2019-03-30T19:41:14.101Z,13.00
2019-03-30T19:43:41.418Z,10.90
2019-03-30T19:46:08.718Z,12.13
2019-03-30T19:48:37.089Z,12.23
2019-03-30T19:51:04.551Z,13.83
2019-03-30T19:53:31.884Z,10.53
2019-03-30T19:55:59.174Z,10.78
2019-03-30T19:58:26.572Z,10.75
2019-03-30T20:00:53.897Z,11.30
2019-03-30T20:03:21.178Z,8.80
2019-03-30T20:05:48.512Z,11.63
2019-03-30T20:08:15.811Z,10.15
2019-03-30T20:10:43.095Z,10.23
2019-03-30T20:13:11.078Z,11.93
2019-03-30T20:15:38.388Z,12.03
2019-03-30T20:18:05.719Z,11.18
2019-03-30T20:20:33.014Z,10.80
2019-03-30T20:23:00.332Z,12.30
2019-03-30T20:25:27.653Z,11.88
2019-03-30T20:27:54.963Z,12.20
2019-03-30T20:30:24.367Z,11.63
2019-03-30T20:32:51.201Z,16.65
2019-03-30T20:35:18.521Z,16.42
2019-03-30T20:37:45.812Z,24.55
2019-03-30T20:40:13.139Z,18.05
2019-03-30T20:42:40.459Z,16.45
2019-03-30T20:45:07.766Z,15.53
2019-03-30T20:47:35.105Z,14.80
2019-03-30T20:50:02.430Z,14.40
2019-03-30T20:52:29.735Z,14.85
2019-03-30T20:54:57.045Z,13.68
2019-03-30T20:57:24.345Z,15.80
2019-03-30T20:59:51.668Z,15.15
2019-03-30T21:02:19.029Z,15.95
2019-03-30T21:04:46.303Z,15.60
2019-03-30T21:07:13.615Z,16.73
2019-03-30T21:09:40.942Z,15.88
2019-03-30T21:12:08.234Z,14.75
2019-03-30T21:14:35.542Z,13.88
2019-03-30T21:17:02.863Z,14.03
2019-03-30T21:19:30.144Z,15.58
2019-03-30T21:21:57.471Z,17.67
2019-03-30T21:24:24.763Z,15.45
2019-03-30T21:26:52.092Z,18.95
2019-03-30T21:29:19.406Z,16.62
2019-03-30T21:31:49.263Z,19.30
2019-03-30T21:34:15.691Z,15.35
2019-03-30T21:36:42.992Z,17.92
2019-03-30T21:39:10.307Z,17.65
2019-03-30T21:41:37.599Z,16.97
2019-03-30T21:44:04.893Z,18.87
2019-03-30T21:46:32.212Z,17.17
2019-03-30T21:48:59.505Z,17.30
2019-03-30T21:51:26.801Z,16.15
2019-03-30T21:53:54.110Z,19.32
2019-03-30T21:56:21.407Z,20.08
2019-03-30T21:58:48.693Z,19.80
2019-03-30T22:01:16.021Z,18.42
2019-03-30T22:03:43.316Z,20.68
2019-03-30T22:06:10.636Z,20.48
2019-03-30T22:08:37.929Z,18.95
2019-03-30T22:11:05.324Z,19.23
2019-03-30T22:13:32.618Z,19.25
2019-03-30T22:15:59.955Z,19.25
2019-03-30T22:18:27.257Z,20.37
2019-03-30T22:20:54.555Z,18.77
2019-03-30T22:23:21.853Z,22.25
2019-03-30T22:25:49.208Z,21.37
2019-03-30T22:28:16.503Z,20.55
2019-03-30T22:30:43.813Z,20.00
2019-03-30T22:33:11.105Z,22.07
2019-03-30T22:35:38.421Z,19.32
2019-03-30T22:38:05.742Z,21.30
2019-03-30T22:40:33.035Z,19.40
2019-03-30T22:43:00.357Z,21.33
2019-03-30T22:45:27.645Z,19.70
2019-03-30T22:47:54.977Z,21.52
2019-03-30T22:50:22.282Z,22.75
2019-03-30T22:52:49.579Z,25.25
2019-03-30T22:55:16.898Z,24.65
2019-03-30T22:57:44.190Z,23.67
2019-03-30T23:00:38.674Z,23.77
2019-03-30T23:03:00.228Z,22.67
2019-03-30T23:05:27.518Z,23.20
2019-03-30T23:07:54.832Z,23.10
2019-03-30T23:10:22.133Z,22.15
2019-03-30T23:12:49.455Z,24.02
2019-03-30T23:15:16.747Z,21.73
2019-03-30T23:17:44.046Z,22.37
2019-03-30T23:20:11.379Z,23.00
2019-03-30T23:22:38.678Z,19.55
2019-03-30T23:25:06.377Z,22.05
2019-03-30T23:27:33.669Z,23.73
2019-03-30T23:30:00.987Z,22.85
2019-03-30T23:32:28.281Z,23.55
2019-03-30T23:34:55.587Z,22.30
2019-03-30T23:37:22.885Z,23.65
2019-03-30T23:39:50.201Z,24.40
2019-03-30T23:42:17.489Z,23.32
2019-03-30T23:44:44.786Z,23.12
2019-03-30T23:47:12.100Z,23.57
2019-03-30T23:49:39.385Z,24.85
2019-03-30T23:52:06.701Z,24.65
2019-03-30T23:54:34.021Z,24.27
2019-03-30T23:57:01.327Z,25.02
2019-03-30T23:59:28.613Z,24.80
